createdAt,value
2019-03-02T00:00:25.114Z,1000.84
2019-03-02T00:01:25.141Z,1000.83
2019-03-02T00:02:25.475Z,1000.89
2019-03-02T00:03:25.200Z,1000.86
2019-03-02T00:04:25.228Z,1000.89
2019-03-02T00:05:25.257Z,1000.87
2019-03-02T00:06:25.285Z,1000.86
2019-03-02T00:07:25.331Z,1000.79
2019-03-02T00:08:26.148Z,1000.81
2019-03-02T00:09:25.374Z,1000.80
2019-03-02T00:10:25.400Z,1000.84
2019-03-02T00:11:25.429Z,1000.80
2019-03-02T00:12:28.789Z,1000.81
2019-03-02T00:13:26.776Z,1000.79
2019-03-02T00:14:25.513Z,1000.82
2019-03-02T00:15:26.875Z,1000.84
2019-03-02T00:16:25.570Z,1000.83
2019-03-02T00:17:25.598Z,1000.75
2019-03-02T00:18:28.799Z,1000.79
2019-03-02T00:19:25.655Z,1000.79
2019-03-02T00:20:25.685Z,1000.78
2019-03-02T00:21:27.722Z,1000.76
2019-03-02T00:22:25.741Z,1000.80
2019-03-02T00:23:25.770Z,1000.73
2019-03-02T00:24:25.798Z,1000.71
2019-03-02T00:25:25.826Z,1000.72
2019-03-02T00:26:25.856Z,1000.69
2019-03-02T00:27:25.887Z,1000.67
2019-03-02T00:28:25.911Z,1000.65
2019-03-02T00:29:25.940Z,1000.65
2019-03-02T00:30:25.971Z,1000.67
2019-03-02T00:31:25.998Z,1000.64
2019-03-02T00:32:26.025Z,1000.63
2019-03-02T00:33:26.054Z,1000.62
2019-03-02T00:34:28.693Z,1000.64
2019-03-02T00:35:26.112Z,1000.62
2019-03-02T00:36:26.140Z,1000.61
2019-03-02T00:37:26.168Z,1000.63
2019-03-02T00:38:26.199Z,1000.62
2019-03-02T00:39:26.226Z,1000.61
2019-03-02T00:40:27.140Z,1000.67
2019-03-02T00:41:26.284Z,1000.65
2019-03-02T00:42:26.310Z,1000.69
2019-03-02T00:43:27.055Z,1000.66
2019-03-02T00:44:26.367Z,1000.72
2019-03-02T00:45:26.396Z,1000.69
2019-03-02T00:46:26.424Z,1000.65
2019-03-02T00:47:26.453Z,1000.64
2019-03-02T00:48:26.482Z,1000.61
2019-03-02T00:49:26.509Z,1000.66
2019-03-02T00:50:26.537Z,1000.59
2019-03-02T00:51:26.566Z,1000.67
2019-03-02T00:52:26.594Z,1000.68
2019-03-02T00:53:26.622Z,1000.67
2019-03-02T00:54:26.650Z,1000.66
2019-03-02T00:55:28.565Z,1000.66
2019-03-02T00:56:26.706Z,1000.64
2019-03-02T00:57:26.737Z,1000.63
2019-03-02T00:58:28.966Z,1000.60
2019-03-02T00:59:26.795Z,1000.67
2019-03-02T01:00:26.819Z,1000.69
2019-03-02T01:01:28.640Z,1000.73
2019-03-02T01:02:26.877Z,1000.70
2019-03-02T01:03:26.904Z,1000.69
2019-03-02T01:04:26.989Z,1000.63
2019-03-02T01:05:26.961Z,1000.61
2019-03-02T01:06:26.991Z,1000.56
2019-03-02T01:07:27.029Z,1000.50
2019-03-02T01:08:27.045Z,1000.43
2019-03-02T01:09:27.078Z,1000.34
2019-03-02T01:10:27.104Z,1000.30
2019-03-02T01:11:29.526Z,1000.24
2019-03-02T01:12:27.160Z,1000.30
2019-03-02T01:13:27.187Z,1000.35
2019-03-02T01:14:28.624Z,1000.36
2019-03-02T01:15:27.245Z,1000.40
2019-03-02T01:16:27.272Z,1000.39
2019-03-02T01:17:30.766Z,1000.32
2019-03-02T01:18:27.380Z,1000.33
2019-03-02T01:19:27.357Z,1000.30
2019-03-02T01:20:28.626Z,1000.26
2019-03-02T01:21:27.413Z,1000.31
2019-03-02T01:22:27.441Z,1000.30
2019-03-02T01:23:28.793Z,1000.31
2019-03-02T01:24:27.498Z,1000.30
2019-03-02T01:25:27.525Z,1000.24
2019-03-02T01:26:27.554Z,1000.26
2019-03-02T01:27:27.588Z,1000.28
2019-03-02T01:28:27.610Z,1000.28
2019-03-02T01:29:27.639Z,1000.29
2019-03-02T01:30:29.996Z,1000.30
2019-03-02T01:31:27.708Z,1000.32
2019-03-02T01:32:27.723Z,1000.32
2019-03-02T01:33:28.562Z,1000.30
2019-03-02T01:34:27.780Z,1000.34
2019-03-02T01:35:27.809Z,1000.31
2019-03-02T01:36:28.720Z,1000.28
2019-03-02T01:37:27.868Z,1000.29
2019-03-02T01:38:27.893Z,1000.27
2019-03-02T01:39:29.254Z,1000.26
2019-03-02T01:40:27.947Z,1000.25
2019-03-02T01:41:27.977Z,1000.29
2019-03-02T01:42:29.709Z,1000.28
2019-03-02T01:43:28.033Z,1000.28
2019-03-02T01:44:28.064Z,1000.30
2019-03-02T01:45:28.975Z,1000.28
2019-03-02T01:46:28.118Z,1000.28
2019-03-02T01:47:28.148Z,1000.28
2019-03-02T01:48:28.174Z,1000.29
2019-03-02T01:49:28.204Z,1000.26
2019-03-02T01:50:28.231Z,1000.31
2019-03-02T01:51:28.259Z,1000.28
2019-03-02T01:52:30.612Z,1000.27
2019-03-02T01:53:28.317Z,1000.23
2019-03-02T01:54:28.344Z,1000.26
2019-03-02T01:55:31.276Z,1000.25
2019-03-02T01:56:28.400Z,1000.29
2019-03-02T01:57:28.428Z,1000.27
2019-03-02T01:58:29.033Z,1000.28
2019-03-02T01:59:28.488Z,1000.26
2019-03-02T02:00:28.515Z,1000.29
2019-03-02T02:01:28.542Z,1000.24
2019-03-02T02:02:28.570Z,1000.25
2019-03-02T02:03:28.600Z,1000.27
2019-03-02T02:04:28.627Z,1000.25
2019-03-02T02:05:31.859Z,1000.24
2019-03-02T02:06:28.684Z,1000.26
2019-03-02T02:07:28.711Z,1000.18
2019-03-02T02:08:29.783Z,1000.18
2019-03-02T02:09:28.766Z,1000.18
2019-03-02T02:10:28.802Z,1000.16
2019-03-02T02:11:28.824Z,1000.19
2019-03-02T02:12:29.665Z,1000.16
2019-03-02T02:13:28.879Z,1000.17
2019-03-02T02:14:28.912Z,1000.14
2019-03-02T02:15:29.382Z,1000.14
2019-03-02T02:16:28.964Z,1000.11
2019-03-02T02:17:28.992Z,1000.16
2019-03-02T02:18:29.021Z,1000.13
2019-03-02T02:19:29.050Z,1000.15
2019-03-02T02:20:29.077Z,1000.10
2019-03-02T02:21:29.107Z,1000.12
2019-03-02T02:22:29.135Z,1000.09
2019-03-02T02:23:29.162Z,1000.10
2019-03-02T02:24:29.190Z,1000.12
2019-03-02T02:25:32.327Z,1000.05
2019-03-02T02:26:29.247Z,1000.06
2019-03-02T02:27:29.275Z,1000.07
2019-03-02T02:28:32.242Z,1000.08
2019-03-02T02:29:29.331Z,1000.08
2019-03-02T02:30:29.363Z,999.99
2019-03-02T02:31:29.390Z,1000.05
2019-03-02T02:32:29.420Z,1000.04
2019-03-02T02:33:29.447Z,1000.03
2019-03-02T02:34:29.473Z,999.96
2019-03-02T02:35:29.505Z,999.97
2019-03-02T02:36:29.533Z,1000.00
2019-03-02T02:37:32.149Z,999.98
2019-03-02T02:38:29.587Z,999.92
2019-03-02T02:39:33.503Z,999.89
2019-03-02T02:40:29.643Z,999.91
2019-03-02T02:41:29.671Z,999.93
2019-03-02T02:42:29.699Z,999.93
2019-03-02T02:43:29.728Z,999.91
2019-03-02T02:44:33.088Z,999.91
2019-03-02T02:45:29.784Z,999.91
2019-03-02T02:46:32.665Z,999.90
2019-03-02T02:47:29.840Z,999.85
2019-03-02T02:48:31.211Z,999.84
2019-03-02T02:49:29.897Z,999.87
2019-03-02T02:50:31.478Z,999.86
2019-03-02T02:51:29.953Z,999.84
2019-03-02T02:52:29.980Z,999.84
2019-03-02T02:53:30.011Z,999.83
2019-03-02T02:54:30.036Z,999.83
2019-03-02T02:55:30.073Z,999.82
2019-03-02T02:56:30.104Z,999.82
2019-03-02T02:57:33.636Z,999.79
2019-03-02T02:58:30.151Z,999.79
2019-03-02T02:59:34.010Z,999.81
2019-03-02T03:00:30.208Z,999.77
2019-03-02T03:01:33.521Z,999.80
2019-03-02T03:02:30.263Z,999.76
2019-03-02T03:03:30.292Z,999.80
2019-03-02T03:04:32.565Z,999.77
2019-03-02T03:05:30.347Z,999.78
2019-03-02T03:06:32.642Z,999.74
2019-03-02T03:07:30.403Z,999.78
2019-03-02T03:08:32.203Z,999.71
2019-03-02T03:09:30.459Z,999.68
2019-03-02T03:10:30.489Z,999.73
2019-03-02T03:11:30.516Z,999.73
2019-03-02T03:12:30.551Z,999.71
2019-03-02T03:13:30.575Z,999.74
2019-03-02T03:14:30.600Z,999.71
2019-03-02T03:15:36.448Z,999.71
2019-03-02T03:16:30.656Z,999.69
2019-03-02T03:17:32.446Z,999.67
2019-03-02T03:18:30.716Z,999.61
2019-03-02T03:19:31.446Z,999.64
2019-03-02T03:20:30.768Z,999.62
2019-03-02T03:21:30.797Z,999.57
2019-03-02T03:22:30.825Z,999.56
2019-03-02T03:23:30.855Z,999.53
2019-03-02T03:24:30.882Z,999.51
2019-03-02T03:25:30.915Z,999.54
2019-03-02T03:26:34.902Z,999.50
2019-03-02T03:27:30.967Z,999.50
2019-03-02T03:28:32.550Z,999.49
2019-03-02T03:29:31.024Z,999.50
2019-03-02T03:30:36.320Z,999.47
2019-03-02T03:31:31.893Z,999.55
2019-03-02T03:32:31.113Z,999.50
2019-03-02T03:33:41.459Z,999.53
2019-03-02T03:34:32.516Z,999.53
2019-03-02T03:35:31.202Z,999.56
2019-03-02T03:36:34.066Z,999.55
2019-03-02T03:37:31.246Z,999.56
2019-03-02T03:38:31.361Z,999.55
2019-03-02T03:39:31.304Z,999.58
2019-03-02T03:40:31.333Z,999.56
2019-03-02T03:41:31.361Z,999.59
2019-03-02T03:42:31.389Z,999.62
2019-03-02T03:43:31.417Z,999.62
2019-03-02T03:44:31.443Z,999.62
2019-03-02T03:45:31.474Z,999.60
2019-03-02T03:46:31.509Z,999.62
2019-03-02T03:47:33.982Z,999.53
2019-03-02T03:48:31.557Z,999.56
2019-03-02T03:49:34.236Z,999.57
2019-03-02T03:50:31.614Z,999.60
2019-03-02T03:51:32.122Z,999.58
2019-03-02T03:52:31.668Z,999.52
2019-03-02T03:53:32.047Z,999.52
2019-03-02T03:54:31.743Z,999.55
2019-03-02T03:55:31.752Z,999.54
2019-03-02T03:56:31.780Z,999.55
2019-03-02T03:57:31.808Z,999.54
2019-03-02T03:58:35.197Z,999.53
2019-03-02T03:59:31.863Z,999.54
2019-03-02T04:00:34.203Z,999.55
2019-03-02T04:01:31.922Z,999.52
2019-03-02T04:02:35.442Z,999.53
2019-03-02T04:03:31.977Z,999.53
2019-03-02T04:04:32.007Z,999.52
2019-03-02T04:05:32.035Z,999.51
2019-03-02T04:06:32.061Z,999.51
2019-03-02T04:07:32.093Z,999.52
2019-03-02T04:08:32.121Z,999.53
2019-03-02T04:09:32.143Z,999.46
2019-03-02T04:10:32.173Z,999.50
2019-03-02T04:11:32.200Z,999.47
2019-03-02T04:12:32.228Z,999.45
2019-03-02T04:13:32.266Z,999.49
2019-03-02T04:14:32.287Z,999.45
2019-03-02T04:15:41.041Z,999.47
2019-03-02T04:16:32.348Z,999.46
2019-03-02T04:17:34.085Z,999.47
2019-03-02T04:18:32.397Z,999.45
2019-03-02T04:19:33.968Z,999.45
2019-03-02T04:20:32.452Z,999.46
2019-03-02T04:21:32.480Z,999.46
2019-03-02T04:22:32.509Z,999.45
2019-03-02T04:23:32.537Z,999.39
2019-03-02T04:24:34.941Z,999.40
2019-03-02T04:25:32.593Z,999.47
2019-03-02T04:26:36.787Z,999.45
2019-03-02T04:27:32.649Z,999.41
2019-03-02T04:28:32.675Z,999.44
2019-03-02T04:29:32.709Z,999.43
2019-03-02T04:30:32.954Z,999.43
2019-03-02T04:31:32.760Z,999.44
2019-03-02T04:32:32.787Z,999.46
2019-03-02T04:33:32.816Z,999.48
2019-03-02T04:34:32.851Z,999.49
2019-03-02T04:35:33.809Z,999.49
2019-03-02T04:36:32.899Z,999.45
2019-03-02T04:37:32.929Z,999.51
2019-03-02T04:38:33.567Z,999.52
2019-03-02T04:39:32.986Z,999.51
2019-03-02T04:40:33.017Z,999.53
2019-03-02T04:41:35.679Z,999.53
2019-03-02T04:42:33.069Z,999.54
2019-03-02T04:43:33.097Z,999.50
2019-03-02T04:44:33.125Z,999.49
2019-03-02T04:45:36.278Z,999.47
2019-03-02T04:46:33.181Z,999.49
2019-03-02T04:47:33.209Z,999.49
2019-03-02T04:48:35.810Z,999.43
2019-03-02T04:49:33.267Z,999.40
2019-03-02T04:50:33.296Z,999.48
2019-03-02T04:51:35.123Z,999.46
2019-03-02T04:52:33.350Z,999.47
2019-03-02T04:53:33.378Z,999.46
2019-03-02T04:54:37.415Z,999.46
2019-03-02T04:55:33.436Z,999.47
2019-03-02T04:56:33.463Z,999.39
2019-03-02T04:57:36.178Z,999.40
2019-03-02T04:58:33.519Z,999.36
2019-03-02T04:59:33.547Z,999.36
2019-03-02T05:00:33.577Z,999.35
2019-03-02T05:01:33.603Z,999.26
2019-03-02T05:02:33.630Z,999.26
2019-03-02T05:03:33.658Z,999.22
2019-03-02T05:04:33.687Z,999.25
2019-03-02T05:05:33.714Z,999.17
2019-03-02T05:06:33.743Z,999.17
2019-03-02T05:07:33.771Z,999.15
2019-03-02T05:08:33.798Z,999.18
2019-03-02T05:09:33.826Z,999.19
2019-03-02T05:10:33.855Z,999.29
2019-03-02T05:11:35.437Z,999.28
2019-03-02T05:12:33.911Z,999.26
2019-03-02T05:13:33.940Z,999.27
2019-03-02T05:14:36.784Z,999.29
2019-03-02T05:15:33.995Z,999.30
2019-03-02T05:16:34.022Z,999.28
2019-03-02T05:17:34.054Z,999.28
2019-03-02T05:18:34.080Z,999.25
2019-03-02T05:19:34.107Z,999.31
2019-03-02T05:20:34.136Z,999.33
2019-03-02T05:21:34.164Z,999.24
2019-03-02T05:22:34.191Z,999.30
2019-03-02T05:23:34.220Z,999.26
2019-03-02T05:24:34.255Z,999.27
2019-03-02T05:25:34.274Z,999.26
2019-03-02T05:26:34.303Z,999.26
2019-03-02T05:27:34.331Z,999.27
2019-03-02T05:28:34.356Z,999.24
2019-03-02T05:29:34.388Z,999.24
2019-03-02T05:30:34.414Z,999.22
2019-03-02T05:31:37.556Z,999.25
2019-03-02T05:32:34.472Z,999.25
2019-03-02T05:33:34.498Z,999.25
2019-03-02T05:34:36.641Z,999.25
2019-03-02T05:35:34.556Z,999.19
2019-03-02T05:36:34.585Z,999.19
2019-03-02T05:37:35.014Z,999.19
2019-03-02T05:38:34.642Z,999.20
2019-03-02T05:39:34.667Z,999.22
2019-03-02T05:40:34.694Z,999.22
2019-03-02T05:41:35.668Z,999.24
2019-03-02T05:42:34.750Z,999.23
2019-03-02T05:43:34.780Z,999.29
2019-03-02T05:44:34.806Z,999.26
2019-03-02T05:45:34.835Z,999.27
2019-03-02T05:46:34.863Z,999.27
2019-03-02T05:47:34.893Z,999.26
2019-03-02T05:48:34.919Z,999.26
2019-03-02T05:49:34.949Z,999.20
2019-03-02T05:50:34.976Z,999.21
2019-03-02T05:51:35.006Z,999.20
2019-03-02T05:52:35.030Z,999.25
2019-03-02T05:53:35.062Z,999.22
2019-03-02T05:54:35.088Z,999.27
2019-03-02T05:55:35.118Z,999.23
2019-03-02T05:56:35.145Z,999.22
2019-03-02T05:57:36.962Z,999.22
2019-03-02T05:58:35.199Z,999.21
2019-03-02T05:59:35.228Z,999.21
2019-03-02T06:00:37.643Z,999.24
2019-03-02T06:01:36.693Z,999.24
2019-03-02T06:02:35.313Z,999.20
2019-03-02T06:03:35.340Z,999.21
2019-03-02T06:04:35.367Z,999.25
2019-03-02T06:05:35.396Z,999.23
2019-03-02T06:06:35.425Z,999.20
2019-03-02T06:07:35.453Z,999.20
2019-03-02T06:08:35.825Z,999.22
2019-03-02T06:09:35.507Z,999.21
2019-03-02T06:10:35.538Z,999.19
2019-03-02T06:11:39.310Z,999.16
2019-03-02T06:12:35.593Z,999.12
2019-03-02T06:13:35.620Z,999.12
2019-03-02T06:14:35.648Z,999.08
2019-03-02T06:15:35.676Z,999.09
2019-03-02T06:16:35.703Z,999.06
2019-03-02T06:17:35.730Z,999.09
2019-03-02T06:18:35.760Z,999.09
2019-03-02T06:19:35.787Z,999.15
2019-03-02T06:20:36.717Z,999.12
2019-03-02T06:21:35.843Z,999.12
2019-03-02T06:22:35.873Z,999.13
2019-03-02T06:23:35.900Z,999.10
2019-03-02T06:24:37.610Z,999.11
2019-03-02T06:25:35.955Z,999.12
2019-03-02T06:26:36.745Z,999.10
2019-03-02T06:27:36.031Z,999.07
2019-03-02T06:28:36.039Z,999.12
2019-03-02T06:29:36.068Z,999.14
2019-03-02T06:30:36.097Z,999.16
2019-03-02T06:31:36.126Z,999.16
2019-03-02T06:32:36.150Z,999.15
2019-03-02T06:33:36.181Z,999.13
2019-03-02T06:34:36.209Z,999.15
2019-03-02T06:35:36.237Z,999.09
2019-03-02T06:36:36.264Z,999.10
2019-03-02T06:37:36.290Z,999.12
2019-03-02T06:38:36.318Z,999.17
2019-03-02T06:39:36.346Z,999.17
2019-03-02T06:40:36.372Z,999.14
2019-03-02T06:41:36.402Z,999.13
2019-03-02T06:42:36.432Z,999.12
2019-03-02T06:43:36.458Z,999.10
2019-03-02T06:44:36.486Z,999.12
2019-03-02T06:45:36.514Z,999.11
2019-03-02T06:46:36.541Z,999.10
2019-03-02T06:47:36.571Z,999.07
2019-03-02T06:48:36.597Z,999.08
2019-03-02T06:49:36.624Z,999.09
2019-03-02T06:50:36.801Z,999.11
2019-03-02T06:51:36.682Z,999.07
2019-03-02T06:52:36.709Z,999.09
2019-03-02T06:53:37.146Z,999.09
2019-03-02T06:54:36.764Z,999.07
2019-03-02T06:55:36.792Z,999.08
2019-03-02T06:56:39.430Z,999.03
2019-03-02T06:57:36.853Z,999.07
2019-03-02T06:58:36.877Z,999.06
2019-03-02T06:59:39.317Z,999.04
2019-03-02T07:00:36.932Z,999.02
2019-03-02T07:01:36.960Z,999.00
2019-03-02T07:02:36.987Z,999.02
2019-03-02T07:03:37.018Z,998.99
2019-03-02T07:04:37.044Z,999.06
2019-03-02T07:05:37.336Z,999.03
2019-03-02T07:06:37.099Z,999.05
2019-03-02T07:07:37.128Z,999.03
2019-03-02T07:08:37.155Z,999.05
2019-03-02T07:09:37.202Z,999.04
2019-03-02T07:10:37.216Z,999.02
2019-03-02T07:11:37.240Z,999.05
2019-03-02T07:12:37.267Z,999.02
2019-03-02T07:13:37.295Z,999.05
2019-03-02T07:14:37.372Z,999.05
2019-03-02T07:15:40.555Z,999.05
2019-03-02T07:16:37.380Z,999.03
2019-03-02T07:17:37.405Z,999.05
2019-03-02T07:18:38.836Z,999.04
2019-03-02T07:19:37.463Z,999.03
2019-03-02T07:20:37.493Z,999.02
2019-03-02T07:21:37.624Z,999.03
2019-03-02T07:22:37.546Z,999.02
2019-03-02T07:23:37.574Z,999.05
2019-03-02T07:24:38.984Z,999.00
2019-03-02T07:25:40.856Z,999.03
2019-03-02T07:26:37.657Z,999.04
2019-03-02T07:27:37.687Z,999.03
2019-03-02T07:28:38.734Z,999.06
2019-03-02T07:29:37.742Z,999.05
2019-03-02T07:30:37.770Z,999.06
2019-03-02T07:31:37.799Z,999.08
2019-03-02T07:32:37.826Z,999.06
2019-03-02T07:33:37.853Z,999.10
2019-03-02T07:34:40.739Z,999.07
2019-03-02T07:35:37.910Z,999.08
2019-03-02T07:36:37.940Z,999.12
2019-03-02T07:37:40.571Z,999.12
2019-03-02T07:38:37.993Z,999.13
2019-03-02T07:39:38.022Z,999.09
2019-03-02T07:40:41.230Z,999.05
2019-03-02T07:41:38.078Z,999.10
2019-03-02T07:42:38.107Z,999.08
2019-03-02T07:43:38.136Z,999.10
2019-03-02T07:44:38.161Z,999.08
2019-03-02T07:45:38.190Z,999.07
2019-03-02T07:46:38.217Z,999.11
2019-03-02T07:47:38.247Z,999.07
2019-03-02T07:48:38.273Z,999.06
2019-03-02T07:49:38.302Z,999.04
2019-03-02T07:50:38.332Z,999.03
2019-03-02T07:51:41.504Z,999.06
2019-03-02T07:52:38.385Z,999.06
2019-03-02T07:53:38.413Z,999.04
2019-03-02T07:54:38.919Z,999.04
2019-03-02T07:55:38.470Z,999.01
2019-03-02T07:56:38.499Z,998.98
2019-03-02T07:57:40.665Z,999.04
2019-03-02T07:58:38.553Z,999.02
2019-03-02T07:59:38.582Z,999.06
2019-03-02T08:00:40.976Z,999.06
2019-03-02T08:01:38.637Z,999.06
2019-03-02T08:02:38.667Z,999.00
2019-03-02T08:03:38.695Z,999.07
2019-03-02T08:04:39.818Z,999.04
2019-03-02T08:05:38.751Z,999.07
2019-03-02T08:06:38.781Z,999.06
2019-03-02T08:07:39.336Z,999.07
2019-03-02T08:08:38.834Z,999.05
2019-03-02T08:09:38.864Z,999.05
2019-03-02T08:10:39.846Z,999.03
2019-03-02T08:11:38.922Z,999.04
2019-03-02T08:12:38.950Z,999.04
2019-03-02T08:13:38.979Z,999.01
2019-03-02T08:14:39.008Z,998.99
2019-03-02T08:15:39.034Z,998.96
2019-03-02T08:16:39.063Z,999.02
2019-03-02T08:17:39.091Z,999.00
2019-03-02T08:18:39.119Z,999.00
2019-03-02T08:19:39.148Z,998.96
2019-03-02T08:20:39.176Z,999.00
2019-03-02T08:21:39.204Z,999.00
2019-03-02T08:22:42.810Z,998.95
2019-03-02T08:23:39.262Z,998.91
2019-03-02T08:24:40.311Z,998.94
2019-03-02T08:25:39.521Z,998.93
2019-03-02T08:26:39.348Z,998.93
2019-03-02T08:27:39.381Z,998.93
2019-03-02T08:28:42.137Z,998.92
2019-03-02T08:29:39.434Z,998.89
2019-03-02T08:30:39.462Z,998.90
2019-03-02T08:31:41.989Z,998.88
2019-03-02T08:32:39.519Z,998.84
2019-03-02T08:33:45.869Z,998.85
2019-03-02T08:34:42.757Z,998.88
2019-03-02T08:35:39.612Z,998.91
2019-03-02T08:36:39.635Z,998.88
2019-03-02T08:37:39.664Z,998.90
2019-03-02T08:38:39.693Z,998.89
2019-03-02T08:39:42.814Z,998.88
2019-03-02T08:40:40.038Z,998.85
2019-03-02T08:41:39.781Z,998.82
2019-03-02T08:42:39.809Z,998.86
2019-03-02T08:43:39.887Z,998.89
2019-03-02T08:44:39.874Z,998.90
2019-03-02T08:45:39.897Z,998.88
2019-03-02T08:46:39.926Z,998.86
2019-03-02T08:47:39.957Z,998.92
2019-03-02T08:48:39.983Z,998.81
2019-03-02T08:49:41.765Z,998.80
2019-03-02T08:50:40.042Z,998.81
2019-03-02T08:51:40.073Z,998.77
2019-03-02T08:52:40.102Z,998.78
2019-03-02T08:53:40.133Z,998.78
2019-03-02T08:54:40.161Z,998.79
2019-03-02T08:55:40.190Z,998.80
2019-03-02T08:56:40.223Z,998.75
2019-03-02T08:57:40.248Z,998.75
2019-03-02T08:58:40.280Z,998.68
2019-03-02T08:59:40.321Z,998.65
2019-03-02T09:00:42.367Z,998.68
2019-03-02T09:01:40.370Z,998.67
2019-03-02T09:02:40.399Z,998.69
2019-03-02T09:03:40.432Z,998.66
2019-03-02T09:04:40.469Z,998.73
2019-03-02T09:05:44.180Z,998.76
2019-03-02T09:06:40.523Z,998.76
2019-03-02T09:07:40.561Z,998.78
2019-03-02T09:08:40.582Z,998.73
2019-03-02T09:09:40.614Z,998.74
2019-03-02T09:10:40.645Z,998.78
2019-03-02T09:11:44.130Z,998.77
2019-03-02T09:12:40.705Z,998.74
2019-03-02T09:13:40.737Z,998.74
2019-03-02T09:14:40.768Z,998.74
2019-03-02T09:15:42.990Z,998.73
2019-03-02T09:16:41.728Z,998.76
2019-03-02T09:17:40.860Z,998.72
2019-03-02T09:18:45.336Z,998.71
2019-03-02T09:19:40.924Z,998.74
2019-03-02T09:20:40.954Z,998.80
2019-03-02T09:21:40.989Z,998.78
2019-03-02T09:22:41.044Z,998.72
2019-03-02T09:23:41.051Z,998.76
2019-03-02T09:24:41.081Z,998.74
2019-03-02T09:25:41.114Z,998.71
2019-03-02T09:26:41.145Z,998.71
2019-03-02T09:27:41.179Z,998.66
2019-03-02T09:28:41.210Z,998.63
2019-03-02T09:29:41.244Z,998.60
2019-03-02T09:30:41.277Z,998.57
2019-03-02T09:31:41.309Z,998.57
2019-03-02T09:32:41.391Z,998.56
2019-03-02T09:33:41.372Z,998.48
2019-03-02T09:34:41.446Z,998.50
2019-03-02T09:35:41.439Z,998.50
2019-03-02T09:36:43.458Z,998.50
2019-03-02T09:37:43.845Z,998.48
2019-03-02T09:38:41.540Z,998.45
2019-03-02T09:39:41.571Z,998.45
2019-03-02T09:40:41.610Z,998.45
2019-03-02T09:41:41.635Z,998.42
2019-03-02T09:42:41.669Z,998.41
2019-03-02T09:43:41.700Z,998.47
2019-03-02T09:44:41.733Z,998.44
2019-03-02T09:45:44.688Z,998.42
2019-03-02T09:46:41.799Z,998.42
2019-03-02T09:47:43.853Z,998.40
2019-03-02T09:48:41.861Z,998.43
2019-03-02T09:49:41.896Z,998.41
2019-03-02T09:50:41.929Z,998.47
2019-03-02T09:51:44.720Z,998.42
2019-03-02T09:52:41.991Z,998.44
2019-03-02T09:53:43.600Z,998.44
2019-03-02T09:54:42.057Z,998.48
2019-03-02T09:55:42.087Z,998.49
2019-03-02T09:56:42.119Z,998.52
2019-03-02T09:57:47.269Z,998.43
2019-03-02T09:58:42.180Z,998.45
2019-03-02T09:59:45.383Z,998.46
2019-03-02T10:00:42.243Z,998.50
2019-03-02T10:01:42.277Z,998.50
2019-03-02T10:02:42.308Z,998.53
2019-03-02T10:03:42.341Z,998.55
2019-03-02T10:04:42.372Z,998.58
2019-03-02T10:05:42.404Z,998.60
2019-03-02T10:06:42.440Z,998.59
2019-03-02T10:07:42.468Z,998.60
2019-03-02T10:08:42.539Z,998.55
2019-03-02T10:09:42.578Z,998.54
2019-03-02T10:10:42.563Z,998.55
2019-03-02T10:11:42.623Z,998.55
2019-03-02T10:12:42.648Z,998.55
2019-03-02T10:13:42.662Z,998.56
2019-03-02T10:14:42.693Z,998.59
2019-03-02T10:15:42.726Z,998.62
2019-03-02T10:16:43.087Z,998.62
2019-03-02T10:17:42.793Z,998.64
2019-03-02T10:18:45.777Z,998.72
2019-03-02T10:19:42.857Z,998.67
2019-03-02T10:20:43.667Z,998.68
2019-03-02T10:21:43.564Z,998.72
2019-03-02T10:22:42.962Z,998.71
2019-03-02T10:23:42.992Z,998.75
2019-03-02T10:24:43.022Z,999.03
2019-03-02T10:25:43.053Z,998.80
2019-03-02T10:26:43.329Z,999.08
2019-03-02T10:27:43.126Z,998.80
2019-03-02T10:28:43.157Z,998.76
2019-03-02T10:29:44.354Z,998.75
2019-03-02T10:30:43.225Z,998.91
2019-03-02T10:31:43.924Z,998.67
2019-03-02T10:32:43.294Z,998.71
2019-03-02T10:33:43.329Z,998.82
2019-03-02T10:34:43.362Z,998.95
2019-03-02T10:35:43.400Z,999.01
2019-03-02T10:36:43.434Z,998.98
2019-03-02T10:37:43.494Z,999.01
2019-03-02T10:38:43.507Z,999.05
2019-03-02T10:39:43.543Z,998.74
2019-03-02T10:40:45.029Z,999.07
2019-03-02T10:41:43.615Z,999.09
2019-03-02T10:42:43.651Z,998.80
2019-03-02T10:43:45.573Z,998.59
2019-03-02T10:44:44.053Z,998.57
2019-03-02T10:45:44.091Z,998.66
2019-03-02T10:46:43.823Z,998.61
2019-03-02T10:47:43.837Z,998.81
2019-03-02T10:48:43.875Z,998.71
2019-03-02T10:49:44.686Z,998.78
2019-03-02T10:50:44.812Z,999.10
2019-03-02T10:51:43.988Z,998.98
2019-03-02T10:52:45.802Z,999.03
2019-03-02T10:53:44.061Z,999.02
2019-03-02T10:54:44.100Z,998.80
2019-03-02T10:55:44.853Z,998.71
2019-03-02T10:56:44.200Z,998.87
2019-03-02T10:57:44.212Z,998.65
2019-03-02T10:58:44.476Z,998.61
2019-03-02T10:59:47.735Z,998.58
2019-03-02T11:00:44.527Z,998.69
2019-03-02T11:01:44.940Z,998.75
2019-03-02T11:02:44.627Z,999.16
2019-03-02T11:03:44.441Z,998.95
2019-03-02T11:04:45.746Z,998.70
2019-03-02T11:05:44.515Z,998.70
2019-03-02T11:06:44.554Z,998.73
2019-03-02T11:07:44.918Z,998.82
2019-03-02T11:08:44.634Z,998.92
2019-03-02T11:09:44.665Z,999.02
2019-03-02T11:10:44.703Z,999.00
2019-03-02T11:11:44.753Z,998.96
2019-03-02T11:12:44.830Z,998.93
2019-03-02T11:13:45.741Z,998.89
2019-03-02T11:14:44.856Z,998.87
2019-03-02T11:15:44.966Z,998.82
2019-03-02T11:16:47.738Z,998.69
2019-03-02T11:17:44.970Z,998.78
2019-03-02T11:18:45.011Z,998.76
2019-03-02T11:19:47.413Z,998.71
2019-03-02T11:20:45.088Z,998.66
2019-03-02T11:21:45.125Z,998.64
2019-03-02T11:22:45.164Z,998.60
2019-03-02T11:23:45.203Z,998.61
2019-03-02T11:24:45.241Z,998.50
2019-03-02T11:25:45.379Z,998.45
2019-03-02T11:26:45.325Z,998.51
2019-03-02T11:27:45.795Z,998.50
2019-03-02T11:28:45.398Z,998.44
2019-03-02T11:29:51.083Z,998.42
2019-03-02T11:30:45.666Z,998.42
2019-03-02T11:31:45.898Z,998.40
2019-03-02T11:32:45.545Z,998.37
2019-03-02T11:33:46.697Z,998.40
2019-03-02T11:34:45.622Z,998.44
2019-03-02T11:35:45.662Z,998.47
2019-03-02T11:36:48.996Z,998.71
2019-03-02T11:37:45.732Z,998.75
2019-03-02T11:38:45.773Z,998.74
2019-03-02T11:39:45.807Z,998.70
2019-03-02T11:40:45.845Z,998.71
2019-03-02T11:41:45.882Z,998.68
2019-03-02T11:42:45.918Z,998.60
2019-03-02T11:43:48.540Z,998.58
2019-03-02T11:44:45.990Z,998.49
2019-03-02T11:45:46.028Z,998.41
2019-03-02T11:46:46.064Z,998.32
2019-03-02T11:47:46.103Z,998.24
2019-03-02T11:48:47.692Z,998.17
2019-03-02T11:49:46.174Z,998.13
2019-03-02T11:50:46.934Z,998.15
2019-03-02T11:51:46.249Z,998.12
2019-03-02T11:52:46.284Z,998.09
2019-03-02T11:53:48.721Z,998.13
2019-03-02T11:54:46.354Z,998.14
2019-03-02T11:55:46.390Z,998.14
2019-03-02T11:56:46.809Z,998.12
2019-03-02T11:57:46.460Z,998.17
2019-03-02T11:58:46.497Z,998.11
2019-03-02T11:59:46.531Z,998.10
2019-03-02T12:00:46.566Z,998.09
2019-03-02T12:01:46.602Z,998.12
2019-03-02T12:02:46.638Z,998.08
2019-03-02T12:03:46.671Z,998.10
2019-03-02T12:04:49.104Z,998.06
2019-03-02T12:05:46.742Z,997.98
2019-03-02T12:06:46.774Z,998.02
2019-03-02T12:07:46.827Z,998.03
2019-03-02T12:09:46.875Z,998.08
2019-03-02T12:10:46.911Z,998.10
2019-03-02T12:11:48.423Z,998.06
2019-03-02T12:12:46.977Z,998.09
2019-03-02T12:13:47.011Z,998.08
2019-03-02T12:14:47.299Z,998.10
2019-03-02T12:15:49.408Z,998.13
2019-03-02T12:16:47.112Z,998.11
2019-03-02T12:17:47.144Z,998.11
2019-03-02T12:18:47.178Z,998.09
2019-03-02T12:19:47.214Z,998.11
2019-03-02T12:20:47.245Z,998.12
2019-03-02T12:21:47.298Z,998.09
2019-03-02T12:22:47.312Z,998.10
2019-03-02T12:23:47.344Z,998.12
2019-03-02T12:24:47.376Z,998.19